Time;durP1;ratioP1;P1;durP2;ratioP2;P2;SDS_P1;SDS_P2;PMS_P1;PMS_P2;Temp;Humidity;BMP_temperature;BMP_pressure;BME280_temperature;BME280_humidity;BME280_pressure;Samples;Min_cycle;Max_cycle;Signal;HPM_P1;HPM_P2
2023/12/25 00:02:16;;;;;;;4.60;4.10;;;7.80;70.40;;;;;;4920316;29;20048;-79
2023/12/25 00:04:42;;;;;;;4.40;3.72;;;7.80;70.50;;;;;;4931425;29;20142;-78
2023/12/25 00:07:10;;;;;;;4.57;3.80;;;7.70;70.40;;;;;;4894174;29;20047;-78
2023/12/25 00:09:36;;;;;;;6.05;3.60;;;7.70;70.50;;;;;;4923369;29;20040;-78
2023/12/25 00:12:03;;;;;;;4.25;3.70;;;7.70;70.50;;;;;;4895104;29;20422;-80
2023/12/25 00:14:29;;;;;;;4.28;3.72;;;7.80;70.40;;;;;;4923178;29;20046;-80
2023/12/25 00:16:55;;;;;;;3.92;3.53;;;7.70;70.40;;;;;;4907928;29;20040;-79
2023/12/25 00:19:21;;;;;;;4.97;3.80;;;7.70;70.40;;;;;;4924592;29;20098;-79
2023/12/25 00:21:46;;;;;;;4.28;3.67;;;7.70;70.40;;;;;;4924615;29;20513;-81
2023/12/25 00:24:12;;;;;;;4.82;3.45;;;7.70;70.40;;;;;;4896375;29;20203;-78
2023/12/25 00:26:40;;;;;;;5.05;3.58;;;7.70;70.30;;;;;;4927201;29;20046;-81
2023/12/25 00:29:09;;;;;;;4.57;3.40;;;7.70;70.20;;;;;;4927412;29;20047;-79
2023/12/25 00:31:35;;;;;;;4.43;3.80;;;7.70;70.20;;;;;;4912288;29;20036;-81
2023/12/25 00:34:01;;;;;;;3.92;3.25;;;7.70;70.20;;;;;;4914916;29;20035;-80
2023/12/25 00:36:27;;;;;;;3.33;3.03;;;7.70;70.00;;;;;;4909681;29;20627;-82
2023/12/25 00:38:53;;;;;;;3.83;3.40;;;7.70;70.00;;;;;;4915239;29;20036;-82
2023/12/25 00:41:19;;;;;;;3.08;2.78;;;7.60;69.90;;;;;;4910826;29;20051;-82
2023/12/25 00:43:46;;;;;;;3.20;2.80;;;7.60;69.80;;;;;;4927450;29;20064;-80
2023/12/25 00:46:12;;;;;;;4.10;2.97;;;7.60;69.80;;;;;;4914805;29;20028;-78
2023/12/25 00:48:38;;;;;;;3.88;3.28;;;7.60;69.90;;;;;;4900702;29;20487;-78
2023/12/25 00:51:04;;;;;;;3.72;3.35;;;7.60;69.90;;;;;;4920155;29;20043;-77
2023/12/25 00:53:30;;;;;;;3.70;3.20;;;7.60;69.90;;;;;;4911411;29;20040;-79
2023/12/25 00:55:56;;;;;;;3.50;2.92;;;7.60;70.00;;;;;;4924153;29;20063;-78
2023/12/25 00:58:22;;;;;;;3.22;2.78;;;7.60;70.00;;;;;;4909780;29;20139;-77
2023/12/25 01:00:50;;;;;;;3.97;2.88;;;7.60;70.00;;;;;;4911056;29;20055;-80
2023/12/25 01:03:16;;;;;;;3.30;3.00;;;7.60;70.00;;;;;;4911261;29;20108;-78
2023/12/25 01:05:42;;;;;;;2.70;2.50;;;7.60;70.00;;;;;;4904228;29;20095;-79
2023/12/25 01:08:08;;;;;;;3.80;2.78;;;7.50;69.90;;;;;;4910790;29;20048;-78
2023/12/25 01:10:34;;;;;;;4.22;2.95;;;7.50;69.90;;;;;;4908435;29;20044;-81
2023/12/25 01:13:00;;;;;;;4.00;2.95;;;7.60;69.90;;;;;;4911183;29;20040;-81
2023/12/25 01:15:26;;;;;;;3.90;3.50;;;7.50;69.90;;;;;;4905901;29;20595;-80
2023/12/25 01:17:52;;;;;;;3.45;3.15;;;7.50;70.00;;;;;;4911023;29;20139;-79
2023/12/25 01:20:18;;;;;;;3.72;2.90;;;7.50;70.00;;;;;;4908796;29;20662;-79
2023/12/25 01:22:44;;;;;;;3.38;3.00;;;7.50;70.00;;;;;;4908676;29;20029;-82
2023/12/25 01:25:10;;;;;;;3.28;2.83;;;7.50;70.10;;;;;;4921621;29;20625;-80
2023/12/25 01:27:39;;;;;;;3.33;2.72;;;7.50;70.30;;;;;;4908098;29;20039;-80
2023/12/25 01:30:05;;;;;;;2.85;2.60;;;7.50;70.20;;;;;;4905595;29;20032;-76
2023/12/25 01:32:31;;;;;;;3.58;2.58;;;7.50;70.20;;;;;;4905570;29;20043;-78
2023/12/25 01:34:57;;;;;;;2.75;2.55;;;7.50;70.10;;;;;;4906446;29;20036;-77
2023/12/25 01:37:24;;;;;;;3.08;2.47;;;7.50;70.10;;;;;;4906916;29;20037;-77
2023/12/25 01:39:51;;;;;;;2.97;2.70;;;7.50;70.00;;;;;;4908627;29;20495;-80
2023/12/25 01:42:18;;;;;;;2.72;2.35;;;7.50;70.00;;;;;;4918738;29;20131;-79
2023/12/25 01:44:46;;;;;;;3.78;2.83;;;7.50;70.00;;;;;;4895395;29;20036;-78
2023/12/25 01:47:15;;;;;;;2.47;2.28;;;7.50;70.00;;;;;;4922583;29;20725;-80
2023/12/25 01:49:41;;;;;;;2.50;2.25;;;7.40;69.90;;;;;;4905834;29;20047;-79
2023/12/25 01:52:08;;;;;;;2.50;2.30;;;7.50;70.00;;;;;;4906954;29;20067;-78
2023/12/25 01:54:35;;;;;;;2.88;2.33;;;7.40;70.00;;;;;;4908351;29;20167;-78
2023/12/25 01:57:01;;;;;;;2.75;2.28;;;7.40;70.00;;;;;;4910695;29;20040;-76
2023/12/25 01:59:28;;;;;;;2.50;2.28;;;7.40;70.00;;;;;;4924553;29;20044;-80
2023/12/25 02:01:55;;;;;;;2.40;2.20;;;7.40;70.00;;;;;;4909216;29;20063;-80
2023/12/25 02:04:21;;;;;;;3.25;2.47;;;7.40;70.00;;;;;;4928724;29;20032;-78
2023/12/25 02:06:48;;;;;;;2.33;2.13;;;7.40;70.00;;;;;;4908874;29;20451;-78
2023/12/25 02:09:14;;;;;;;1.98;1.88;;;7.40;70.00;;;;;;4909660;29;20038;-77
2023/12/25 02:11:41;;;;;;;2.65;2.35;;;7.40;70.10;;;;;;4925592;29;20039;-75
2023/12/25 02:14:08;;;;;;;2.67;2.00;;;7.40;70.10;;;;;;4928051;29;20044;-78
2023/12/25 02:16:36;;;;;;;2.10;1.90;;;7.40;70.10;;;;;;4909343;29;20793;-78
2023/12/25 02:19:25;;;;;;;2.22;2.03;;;7.40;70.30;;;;;;4908733;29;20035;-78
2023/12/25 02:21:54;;;;;;;2.08;1.83;;;7.40;70.20;;;;;;4894432;29;20043;-79
2023/12/25 02:24:24;;;;;;;2.50;2.30;;;7.40;70.20;;;;;;4910944;29;20142;-77
2023/12/25 02:26:51;;;;;;;2.30;2.10;;;7.40;70.20;;;;;;4925886;29;20152;-80
2023/12/25 02:29:17;;;;;;;2.88;2.15;;;7.40;70.20;;;;;;4912130;29;20067;-81
2023/12/25 02:31:44;;;;;;;2.20;2.00;;;7.40;70.20;;;;;;4919418;29;20031;-81
2023/12/25 02:34:10;;;;;;;2.00;1.80;;;7.40;70.20;;;;;;4912524;29;20036;-81
2023/12/25 02:36:36;;;;;;;2.08;1.88;;;7.40;70.10;;;;;;4929274;29;20030;-82
2023/12/25 02:39:02;;;;;;;2.42;2.22;;;7.30;70.00;;;;;;4908305;29;20043;-77
2023/12/25 02:41:28;;;;;;;2.35;2.15;;;7.40;70.20;;;;;;4926685;29;20047;-79
2023/12/25 02:43:54;;;;;;;2.15;1.80;;;7.30;70.10;;;;;;4912089;29;20043;-80
2023/12/25 02:46:20;;;;;;;2.38;2.10;;;7.30;70.00;;;;;;4892260;29;20039;-78
2023/12/25 02:48:46;;;;;;;2.38;2.17;;;7.30;70.00;;;;;;4923054;29;20027;-80
2023/12/25 02:51:12;;;;;;;1.75;1.65;;;7.30;70.00;;;;;;4912910;29;20039;-80
2023/12/25 02:53:38;;;;;;;1.98;1.85;;;7.40;70.00;;;;;;4896565;29;20487;-80
2023/12/25 02:56:04;;;;;;;1.83;1.70;;;7.30;69.90;;;;;;4925348;29;20080;-75
2023/12/25 02:58:30;;;;;;;2.00;1.80;;;7.30;69.90;;;;;;4911477;29;20043;-79
2023/12/25 03:00:56;;;;;;;2.65;2.00;;;7.30;70.00;;;;;;4925286;29;20024;-78
2023/12/25 03:03:22;;;;;;;2.58;2.00;;;7.30;69.90;;;;;;4895923;29;20032;-79
2023/12/25 03:05:48;;;;;;;2.75;2.17;;;7.30;69.90;;;;;;4906718;29;20050;-80
2023/12/25 03:08:14;;;;;;;2.88;2.03;;;7.30;69.90;;;;;;4896217;29;20119;-79
2023/12/25 03:10:41;;;;;;;2.20;1.90;;;7.30;69.90;;;;;;4923000;29;20043;-76
2023/12/25 03:13:08;;;;;;;2.20;2.00;;;7.30;69.90;;;;;;4912109;29;20095;-78
2023/12/25 03:15:35;;;;;;;2.28;2.00;;;7.30;70.10;;;;;;4910772;29;20027;-80
2023/12/25 03:18:01;;;;;;;2.78;2.42;;;7.30;70.40;;;;;;4910144;29;21066;-76
2023/12/25 03:20:27;;;;;;;2.40;2.20;;;7.30;70.60;;;;;;4912195;29;20047;-80
2023/12/25 03:22:53;;;;;;;2.20;2.00;;;7.30;70.80;;;;;;4926066;29;20039;-80
2023/12/25 03:25:19;;;;;;;2.08;1.88;;;7.30;70.90;;;;;;4922899;29;20042;-81
2023/12/25 03:27:45;;;;;;;2.20;1.80;;;7.30;71.00;;;;;;4895564;29;20031;-79
2023/12/25 03:30:11;;;;;;;2.20;2.00;;;7.30;71.00;;;;;;4923183;29;20039;-80
2023/12/25 03:32:39;;;;;;;2.08;1.98;;;7.30;71.10;;;;;;4911299;29;20044;-81
2023/12/25 03:35:05;;;;;;;2.10;1.90;;;7.30;71.10;;;;;;4894857;29;20041;-79
2023/12/25 03:37:31;;;;;;;2.22;2.00;;;7.40;71.20;;;;;;4911304;29;20062;-79
2023/12/25 03:39:57;;;;;;;2.20;1.95;;;7.30;71.00;;;;;;4911893;29;20098;-79
2023/12/25 03:42:24;;;;;;;2.20;2.00;;;7.30;71.00;;;;;;4895349;29;20032;-80
2023/12/25 03:44:50;;;;;;;2.67;1.98;;;7.30;71.10;;;;;;4925730;29;20044;-79
2023/12/25 03:47:16;;;;;;;2.30;2.10;;;7.30;71.00;;;;;;4922696;29;20036;-81
2023/12/25 03:49:42;;;;;;;2.17;1.98;;;7.30;70.90;;;;;;4910066;29;20573;-80
2023/12/25 03:52:09;;;;;;;1.90;1.75;;;7.30;70.80;;;;;;4923833;29;20039;-78
2023/12/25 03:54:35;;;;;;;2.67;2.00;;;7.40;70.80;;;;;;4910686;29;20055;-80
2023/12/25 03:57:01;;;;;;;2.78;2.20;;;7.30;70.70;;;;;;4910357;29;20040;-75
2023/12/25 03:59:27;;;;;;;2.20;2.00;;;7.40;70.70;;;;;;4906833;29;20043;-80
2023/12/25 04:01:53;;;;;;;2.38;2.15;;;7.30;70.60;;;;;;4923404;29;20491;-78
2023/12/25 04:04:19;;;;;;;3.75;2.22;;;7.30;70.50;;;;;;4924882;29;20040;-79
2023/12/25 04:06:46;;;;;;;2.53;2.13;;;7.30;70.50;;;;;;4905982;29;20028;-78
2023/12/25 04:09:12;;;;;;;2.08;1.92;;;7.30;70.50;;;;;;4921841;29;20043;-79
2023/12/25 04:11:38;;;;;;;2.40;2.15;;;7.30;70.60;;;;;;4922292;29;20103;-81
2023/12/25 04:14:04;;;;;;;2.90;1.75;;;7.30;71.00;;;;;;4923763;29;21091;-80
2023/12/25 04:16:30;;;;;;;2.55;1.95;;;7.30;70.40;;;;;;4910661;29;20494;-82
2023/12/25 04:18:56;;;;;;;2.35;2.15;;;7.30;70.30;;;;;;4912488;29;20040;-78
2023/12/25 04:21:27;;;;;;;2.63;2.42;;;7.30;70.20;;;;;;4920946;29;20177;-80
2023/12/25 04:23:55;;;;;;;3.60;2.63;;;7.30;70.20;;;;;;4926018;29;20050;-82
2023/12/25 04:26:22;;;;;;;3.42;2.38;;;7.30;70.20;;;;;;4913580;29;20134;-80
2023/12/25 04:28:49;;;;;;;3.03;2.03;;;7.30;70.20;;;;;;4911890;29;20474;-83
2023/12/25 04:31:16;;;;;;;2.28;2.08;;;7.30;70.30;;;;;;4924330;29;20059;-83
2023/12/25 04:33:43;;;;;;;3.38;2.60;;;7.30;70.20;;;;;;4912545;29;20066;-80
2023/12/25 04:36:09;;;;;;;2.30;2.10;;;7.30;70.20;;;;;;4909959;29;20036;-79
2023/12/25 04:38:37;;;;;;;3.70;2.50;;;7.30;70.20;;;;;;4923823;29;20043;-84
2023/12/25 04:41:04;;;;;;;2.50;2.30;;;7.30;70.20;;;;;;4907405;29;20123;-84
2023/12/25 04:43:30;;;;;;;2.55;2.35;;;7.30;70.20;;;;;;4897288;29;20043;-82
2023/12/25 04:45:56;;;;;;;2.40;2.20;;;7.30;70.20;;;;;;4925777;29;20028;-85
2023/12/25 04:48:22;;;;;;;2.95;2.60;;;7.30;70.10;;;;;;4914081;29;20064;-81
2023/12/25 04:50:49;;;;;;;2.50;2.30;;;7.30;70.10;;;;;;4909762;29;20036;-83
2023/12/25 04:53:15;;;;;;;4.40;2.80;;;7.30;70.10;;;;;;4913911;29;20062;-85
2023/12/25 04:55:41;;;;;;;2.70;2.40;;;7.30;70.00;;;;;;4913003;29;20038;-82
2023/12/25 04:58:07;;;;;;;2.83;2.38;;;7.30;70.60;;;;;;4905117;29;20550;-82
2023/12/25 05:00:33;;;;;;;2.78;2.28;;;7.30;70.00;;;;;;4911397;29;20035;-86
2023/12/25 05:03:00;;;;;;;2.55;2.35;;;7.30;70.10;;;;;;4925481;29;20032;-87
2023/12/25 05:05:26;;;;;;;2.75;2.20;;;7.30;70.10;;;;;;4922978;29;20044;-85
2023/12/25 05:07:52;;;;;;;2.92;2.30;;;7.30;70.00;;;;;;4914076;29;20040;-85
2023/12/25 05:10:18;;;;;;;2.40;2.08;;;7.30;70.00;;;;;;4910098;29;20047;-85
2023/12/25 05:12:44;;;;;;;2.33;2.00;;;7.30;70.10;;;;;;4927297;29;20140;-82
2023/12/25 05:15:11;;;;;;;3.28;1.83;;;7.30;70.10;;;;;;4927308;29;20099;-86
2023/12/25 05:17:39;;;;;;;4.03;2.55;;;7.30;70.10;;;;;;4926525;29;20467;-85
2023/12/25 05:20:07;;;;;;;2.60;2.40;;;7.30;70.00;;;;;;4908089;29;20039;-86
2023/12/25 05:22:34;;;;;;;2.35;2.15;;;7.30;69.90;;;;;;4913637;29;20047;-86
2023/12/25 05:25:00;;;;;;;2.70;2.50;;;7.30;69.90;;;;;;4929765;29;20035;-85
2023/12/25 05:27:27;;;;;;;2.60;2.40;;;7.20;69.90;;;;;;4925640;29;20139;-86
2023/12/25 05:29:53;;;;;;;2.38;2.00;;;7.20;69.90;;;;;;4907533;29;20407;-85
2023/12/25 05:32:19;;;;;;;2.38;2.05;;;7.20;70.00;;;;;;4929317;29;20091;-86
2023/12/25 05:34:45;;;;;;;2.55;2.33;;;7.20;70.00;;;;;;4927466;29;20503;-85
2023/12/25 05:37:11;;;;;;;5.00;2.55;;;7.20;70.00;;;;;;4928377;29;20032;-84
2023/12/25 05:39:37;;;;;;;3.20;2.75;;;7.20;70.00;;;;;;4928593;29;20067;-86
2023/12/25 05:42:03;;;;;;;3.03;2.72;;;7.20;69.90;;;;;;4926899;29;20042;-81
2023/12/25 05:44:29;;;;;;;7.07;2.63;;;7.20;69.90;;;;;;4927775;29;20074;-84
2023/12/25 05:46:55;;;;;;;2.70;2.30;;;7.20;69.90;;;;;;4914703;29;20067;-90
2023/12/25 05:49:21;;;;;;;3.05;2.85;;;7.20;69.90;;;;;;4929786;29;21132;-88
2023/12/25 05:51:47;;;;;;;3.40;2.28;;;7.20;69.90;;;;;;4898848;29;20550;-88
2023/12/25 05:54:13;;;;;;;2.85;2.38;;;7.20;69.80;;;;;;4910693;29;20042;-90
2023/12/25 05:56:39;;;;;;;3.83;2.58;;;7.20;69.70;;;;;;4928520;29;20059;-90
2023/12/25 05:59:05;;;;;;;2.80;2.30;;;7.20;69.80;;;;;;4929243;29;20091;-88
2023/12/25 06:01:31;;;;;;;3.03;2.47;;;7.20;69.80;;;;;;4931633;29;20050;-91
2023/12/25 06:03:58;;;;;;;2.72;2.38;;;7.20;69.80;;;;;;4930446;29;20038;-88
2023/12/25 06:06:24;;;;;;;2.83;2.45;;;7.20;69.90;;;;;;4926972;29;20031;-90
2023/12/25 06:08:50;;;;;;;2.50;2.30;;;7.20;69.90;;;;;;4930599;29;20040;-89
2023/12/25 06:11:16;;;;;;;2.42;2.22;;;7.20;69.90;;;;;;4927294;29;20064;-86
2023/12/25 06:13:42;;;;;;;3.05;2.50;;;7.20;69.90;;;;;;4926339;29;20038;-85
2023/12/25 06:16:08;;;;;;;2.78;2.50;;;7.20;69.90;;;;;;4927394;29;20044;-87
2023/12/25 06:18:34;;;;;;;2.50;2.30;;;7.20;69.90;;;;;;4914780;29;20041;-85
2023/12/25 06:21:00;;;;;;;2.70;2.35;;;7.20;69.90;;;;;;4904506;29;20537;-86
2023/12/25 06:23:26;;;;;;;2.95;2.67;;;7.20;70.00;;;;;;4926617;29;20040;-84
2023/12/25 06:25:52;;;;;;;3.72;2.90;;;7.20;69.90;;;;;;4927603;29;20071;-84
2023/12/25 06:28:18;;;;;;;2.70;2.50;;;7.20;69.90;;;;;;4914993;29;20091;-86
2023/12/25 06:30:44;;;;;;;2.67;2.33;;;7.20;69.90;;;;;;4916211;29;20031;-87
2023/12/25 06:33:10;;;;;;;2.65;2.40;;;7.20;69.90;;;;;;4926873;29;20080;-87
2023/12/25 06:35:36;;;;;;;2.83;2.30;;;7.20;70.50;;;;;;4926199;29;20063;-86
2023/12/25 06:38:02;;;;;;;2.53;2.30;;;7.20;69.80;;;;;;4914306;29;20079;-81
2023/12/25 06:40:28;;;;;;;4.22;2.30;;;7.10;69.70;;;;;;4930032;29;20042;-88
2023/12/25 06:42:54;;;;;;;2.55;2.35;;;7.20;69.70;;;;;;4928096;29;20035;-87
2023/12/25 06:45:20;;;;;;;2.95;2.42;;;7.20;69.60;;;;;;4914917;29;20043;-91
2023/12/25 06:47:47;;;;;;;4.68;3.08;;;7.20;69.70;;;;;;4913430;29;20043;-90
2023/12/25 06:50:13;;;;;;;2.70;2.50;;;7.20;69.50;;;;;;4908383;29;20060;-92
2023/12/25 06:52:43;;;;;;;2.35;2.15;;;7.10;69.50;;;;;;4930238;29;20064;-84
2023/12/25 06:55:10;;;;;;;3.88;2.35;;;7.10;69.40;;;;;;4935796;28;20048;-80
2023/12/25 06:57:36;;;;;;;2.92;2.47;;;7.10;69.30;;;;;;4921265;29;20067;-85
2023/12/25 07:00:04;;;;;;;2.92;2.28;;;7.20;69.30;;;;;;4926338;29;20120;-85
2023/12/25 07:02:30;;;;;;;2.83;2.30;;;7.10;69.20;;;;;;4930369;29;20040;-86
2023/12/25 07:04:56;;;;;;;2.70;2.33;;;7.10;69.10;;;;;;4923632;29;20044;-88
2023/12/25 07:07:22;;;;;;;3.38;2.75;;;7.10;69.10;;;;;;4926441;29;20797;-83
2023/12/25 07:09:48;;;;;;;3.20;2.50;;;7.10;69.10;;;;;;4911695;29;20044;-86
2023/12/25 07:12:14;;;;;;;2.78;2.47;;;7.10;69.10;;;;;;4925521;29;20051;-86
2023/12/25 07:14:45;;;;;;;2.70;2.50;;;7.20;69.00;;;;;;4925646;29;20035;-82
2023/12/25 07:17:11;;;;;;;2.88;2.30;;;7.10;68.90;;;;;;4928365;29;20495;-90
2023/12/25 07:19:37;;;;;;;2.80;2.30;;;7.10;68.80;;;;;;4924544;29;20035;-83
2023/12/25 07:22:04;;;;;;;3.03;2.40;;;7.20;68.90;;;;;;4924246;29;20599;-78
2023/12/25 07:24:30;;;;;;;4.43;2.75;;;7.20;68.80;;;;;;4925480;29;20046;-89
2023/12/25 07:26:56;;;;;;;3.45;2.85;;;7.10;68.80;;;;;;4927536;29;20032;-86
2023/12/25 07:29:23;;;;;;;3.78;2.95;;;7.20;68.80;;;;;;4926392;29;20582;-83
2023/12/25 07:31:49;;;;;;;4.63;3.08;;;7.20;68.80;;;;;;4909846;29;20035;-90
2023/12/25 07:34:15;;;;;;;5.15;3.30;;;7.20;69.90;;;;;;4924391;29;20031;-86
2023/12/25 07:36:41;;;;;;;5.15;3.17;;;7.20;70.40;;;;;;4926928;29;20039;-85
2023/12/25 07:39:07;;;;;;;4.88;2.85;;;7.20;71.10;;;;;;4911160;29;20471;-85
2023/12/25 07:41:33;;;;;;;3.17;2.33;;;7.20;72.80;;;;;;4911953;29;20160;-85
2023/12/25 07:44:01;;;;;;;2.92;2.03;;;7.30;74.50;;;;;;4923165;29;20133;-85
2023/12/25 07:46:27;;;;;;;3.88;2.28;;;7.30;75.90;;;;;;4924986;29;20067;-91
2023/12/25 07:48:53;;;;;;;5.28;2.13;;;7.30;76.60;;;;;;4913830;29;20032;-91
2023/12/25 07:51:19;;;;;;;2.97;2.22;;;7.40;76.70;;;;;;4924300;29;20104;-86
2023/12/25 07:53:46;;;;;;;2.85;2.20;;;7.40;77.50;;;;;;4931534;29;20486;-88
2023/12/25 07:56:12;;;;;;;2.13;1.92;;;7.40;77.40;;;;;;4932838;29;20513;-84
2023/12/25 07:58:38;;;;;;;4.15;2.10;;;7.50;77.80;;;;;;4934048;29;20070;-83
2023/12/25 08:01:04;;;;;;;3.50;2.00;;;7.50;77.40;;;;;;4921937;29;20039;-82
2023/12/25 08:03:30;;;;;;;2.90;2.20;;;7.50;77.70;;;;;;4931393;29;20071;-87
2023/12/25 08:05:56;;;;;;;3.97;2.70;;;7.50;77.80;;;;;;4928639;29;20093;-89
2023/12/25 08:08:22;;;;;;;4.75;2.50;;;7.60;78.10;;;;;;4908344;29;20128;-84
2023/12/25 08:10:48;;;;;;;5.60;2.55;;;7.60;78.00;;;;;;4924869;29;20126;-91
2023/12/25 08:13:18;;;;;;;5.55;2.50;;;7.70;78.50;;;;;;4913661;29;20491;-86
2023/12/25 08:15:44;;;;;;;3.90;2.20;;;7.70;78.40;;;;;;4925311;29;20029;-84
2023/12/25 08:18:10;;;;;;;3.55;2.50;;;7.70;78.70;;;;;;4928533;29;20060;-85
2023/12/25 08:20:36;;;;;;;5.63;2.97;;;7.70;78.70;;;;;;4908526;29;20058;-88
2023/12/25 08:23:02;;;;;;;4.68;2.72;;;7.80;78.60;;;;;;4928625;29;20075;-80
2023/12/25 08:25:28;;;;;;;3.65;2.53;;;7.80;78.90;;;;;;4927077;29;20043;-90
2023/12/25 08:27:54;;;;;;;4.72;2.92;;;7.80;78.80;;;;;;4926998;29;20039;-87
2023/12/25 08:30:21;;;;;;;5.95;2.88;;;7.80;79.20;;;;;;4925727;29;20035;-91
2023/12/25 08:32:47;;;;;;;4.07;2.33;;;7.90;79.10;;;;;;4924787;29;20534;-87
2023/12/25 08:35:13;;;;;;;5.13;3.05;;;7.90;79.10;;;;;;4906150;29;20040;-84
2023/12/25 08:37:39;;;;;;;6.55;3.33;;;7.90;80.10;;;;;;4925595;29;20118;-80
2023/12/25 08:40:06;;;;;;;5.00;3.00;;;8.00;80.10;;;;;;4924786;29;20134;-80
2023/12/25 08:42:32;;;;;;;7.55;3.70;;;8.00;80.10;;;;;;4906479;29;20048;-79
2023/12/25 08:44:58;;;;;;;5.30;2.75;;;8.10;80.20;;;;;;4913988;29;20079;-80
2023/12/25 08:47:25;;;;;;;3.88;3.10;;;8.10;80.40;;;;;;4909950;29;20044;-81
2023/12/25 08:49:51;;;;;;;5.22;2.80;;;8.10;80.50;;;;;;4926643;29;20043;-80
2023/12/25 08:52:17;;;;;;;3.80;3.00;;;8.10;80.30;;;;;;4909293;29;20072;-80
2023/12/25 08:54:43;;;;;;;3.38;2.88;;;8.20;80.40;;;;;;4929073;29;20684;-79
2023/12/25 08:57:09;;;;;;;5.20;2.70;;;8.20;80.00;;;;;;4924072;29;20160;-80
2023/12/25 08:59:36;;;;;;;5.68;3.35;;;8.20;79.80;;;;;;4927330;29;20598;-80
2023/12/25 09:02:02;;;;;;;3.25;2.65;;;8.20;79.80;;;;;;4927137;29;21489;-78
2023/12/25 09:04:28;;;;;;;4.72;2.97;;;8.30;79.60;;;;;;4927633;29;20530;-80
2023/12/25 09:06:54;;;;;;;3.55;3.00;;;8.30;79.80;;;;;;4927645;29;20043;-79
2023/12/25 09:09:22;;;;;;;4.63;3.20;;;8.30;79.90;;;;;;4930175;29;20043;-80
2023/12/25 09:11:48;;;;;;;4.57;2.95;;;8.30;79.80;;;;;;4924237;29;20040;-81
2023/12/25 09:14:14;;;;;;;3.38;2.65;;;8.30;79.60;;;;;;4910890;29;20065;-80
2023/12/25 09:16:40;;;;;;;6.82;3.00;;;8.40;79.60;;;;;;4927108;29;20063;-81
2023/12/25 09:19:06;;;;;;;4.05;3.08;;;8.40;79.40;;;;;;4924561;29;20090;-80
2023/12/25 09:21:39;;;;;;;5.00;2.70;;;8.40;79.10;;;;;;4924793;29;20495;-81
2023/12/25 09:24:06;;;;;;;4.03;2.72;;;8.40;79.10;;;;;;4923109;29;20043;-82
2023/12/25 09:26:32;;;;;;;4.85;3.03;;;8.40;79.20;;;;;;4925163;29;20032;-80
2023/12/25 09:28:58;;;;;;;5.75;2.95;;;8.50;79.00;;;;;;4924031;29;20036;-79
2023/12/25 09:31:24;;;;;;;3.72;2.60;;;8.50;79.00;;;;;;4925642;29;20028;-80
2023/12/25 09:33:50;;;;;;;3.72;2.75;;;8.50;79.10;;;;;;4909636;29;20539;-81
2023/12/25 09:36:16;;;;;;;3.15;2.67;;;8.50;79.20;;;;;;4896809;29;20036;-81
2023/12/25 09:38:42;;;;;;;3.08;2.35;;;8.50;79.00;;;;;;4928141;29;20115;-80
2023/12/25 09:41:11;;;;;;;3.45;2.70;;;8.50;78.80;;;;;;4912649;29;20036;-85
2023/12/25 09:43:41;;;;;;;3.75;2.55;;;8.60;78.60;;;;;;4925535;29;20058;-82
2023/12/25 09:46:10;;;;;;;3.25;2.53;;;8.60;78.40;;;;;;4926896;29;20594;-76
2023/12/25 09:48:38;;;;;;;6.95;2.78;;;8.60;78.20;;;;;;4926504;29;20066;-82
2023/12/25 09:51:05;;;;;;;3.85;2.72;;;8.60;77.90;;;;;;4914556;29;20071;-85
2023/12/25 09:53:32;;;;;;;4.85;2.90;;;8.60;77.80;;;;;;4927823;29;20042;-92
2023/12/25 09:56:01;;;;;;;4.50;3.20;;;8.60;77.60;;;;;;4929431;29;20646;-93
2023/12/25 09:58:28;;;;;;;3.70;3.00;;;8.60;77.60;;;;;;4901823;29;20052;-85
2023/12/25 10:00:55;;;;;;;2.95;2.35;;;8.70;77.50;;;;;;4924210;29;20056;-89
2023/12/25 10:03:21;;;;;;;3.65;2.90;;;8.60;77.30;;;;;;4914585;29;20075;-82
2023/12/25 10:05:47;;;;;;;3.10;2.35;;;8.70;77.20;;;;;;4911733;29;20067;-84
2023/12/25 10:08:13;;;;;;;4.25;2.85;;;8.70;77.00;;;;;;4926981;29;20047;-85
2023/12/25 10:10:39;;;;;;;2.55;2.13;;;8.70;76.90;;;;;;4912011;29;20039;-85
2023/12/25 10:13:05;;;;;;;2.75;2.10;;;8.70;76.70;;;;;;4925172;29;20032;-86
2023/12/25 10:15:31;;;;;;;3.60;2.25;;;8.70;76.60;;;;;;4927677;29;20091;-88
2023/12/25 10:18:08;;;;;;;2.42;2.20;;;8.70;76.40;;;;;;4923117;29;20387;-86
2023/12/25 10:20:34;;;;;;;2.25;1.92;;;8.70;76.20;;;;;;4905741;29;20125;-84
2023/12/25 10:23:09;;;;;;;2.17;2.03;;;8.70;76.10;;;;;;4923869;29;20047;-83
2023/12/25 10:25:42;;;;;;;2.67;1.92;;;8.70;75.70;;;;;;4922859;29;20139;-78
2023/12/25 10:28:12;;;;;;;2.28;1.67;;;8.70;75.70;;;;;;4924571;29;20059;-79
2023/12/25 10:30:38;;;;;;;2.63;1.80;;;8.70;75.60;;;;;;4923142;29;20230;-79
2023/12/25 10:33:10;;;;;;;1.70;1.60;;;8.70;75.80;;;;;;4905544;29;20174;-77
2023/12/25 10:35:37;;;;;;;1.90;1.52;;;8.70;75.50;;;;;;4922991;29;20039;-78
2023/12/25 10:38:05;;;;;;;2.60;1.80;;;8.70;75.70;;;;;;4906722;29;20043;-78
2023/12/25 10:40:32;;;;;;;2.72;1.73;;;8.80;75.70;;;;;;4923133;29;20042;-78
2023/12/25 10:42:58;;;;;;;2.72;1.70;;;8.80;75.50;;;;;;4910830;29;20046;-79
2023/12/25 10:45:30;;;;;;;3.15;1.70;;;8.80;75.40;;;;;;4922808;29;20040;-76
2023/12/25 10:47:58;;;;;;;2.08;1.58;;;8.80;75.40;;;;;;4905943;29;20395;-76
2023/12/25 10:50:26;;;;;;;1.70;1.40;;;8.80;75.20;;;;;;4924928;29;20147;-78
2023/12/25 10:53:03;;;;;;;2.10;1.50;;;8.80;75.20;;;;;;4894915;29;20042;-77
2023/12/25 10:55:32;;;;;;;2.83;1.40;;;8.80;75.10;;;;;;4910133;29;20038;-79
2023/12/25 10:57:59;;;;;;;2.20;1.80;;;8.80;74.90;;;;;;4924982;29;20056;-78
2023/12/25 11:00:28;;;;;;;2.47;1.50;;;8.80;74.70;;;;;;4925497;29;20610;-76
2023/12/25 11:02:57;;;;;;;1.95;1.55;;;8.80;74.40;;;;;;4910592;29;20050;-78
2023/12/25 11:05:24;;;;;;;1.20;1.10;;;8.80;74.30;;;;;;4922881;29;20071;-76
2023/12/25 11:07:52;;;;;;;1.90;1.50;;;8.80;74.60;;;;;;4905821;29;20039;-80
2023/12/25 11:10:18;;;;;;;2.22;1.50;;;8.80;74.40;;;;;;4921337;29;20098;-78
2023/12/25 11:12:45;;;;;;;1.23;1.15;;;8.80;74.30;;;;;;4924743;29;20103;-77
2023/12/25 11:15:14;;;;;;;1.63;1.50;;;8.80;74.10;;;;;;4922866;29;20388;-78
2023/12/25 11:17:40;;;;;;;1.60;1.08;;;8.80;73.70;;;;;;4907070;29;20458;-78
2023/12/25 11:20:10;;;;;;;1.52;1.40;;;8.80;73.70;;;;;;4923896;29;20401;-76
2023/12/25 11:22:39;;;;;;;2.17;1.48;;;8.90;73.90;;;;;;4923606;29;20040;-80
2023/12/25 11:25:10;;;;;;;2.72;1.33;;;8.80;73.70;;;;;;4907009;29;20087;-78
2023/12/25 11:27:36;;;;;;;1.75;1.20;;;8.80;73.70;;;;;;4924602;29;20046;-77
2023/12/25 11:30:09;;;;;;;1.98;1.73;;;8.80;73.30;;;;;;4926149;29;20051;-77
2023/12/25 11:32:36;;;;;;;2.15;1.60;;;8.90;73.70;;;;;;4891141;29;20039;-77
2023/12/25 11:35:03;;;;;;;1.92;1.45;;;8.80;73.10;;;;;;4907198;29;20043;-76
2023/12/25 11:37:29;;;;;;;1.85;1.33;;;8.90;73.00;;;;;;4921520;29;20048;-79
2023/12/25 11:40:01;;;;;;;1.55;1.45;;;8.80;73.20;;;;;;4923451;29;20119;-77
2023/12/25 11:42:27;;;;;;;1.27;1.17;;;8.80;73.00;;;;;;4922322;29;20039;-78
2023/12/25 11:45:00;;;;;;;1.30;1.20;;;8.80;73.00;;;;;;4894428;29;20418;-78
2023/12/25 11:47:28;;;;;;;1.60;1.30;;;8.90;73.10;;;;;;4905691;29;20114;-76
2023/12/25 11:49:56;;;;;;;2.78;1.38;;;8.80;72.80;;;;;;4907497;29;20035;-79
2023/12/25 11:52:46;;;;;;;1.40;1.30;;;8.90;72.80;;;;;;4920634;29;20034;-80
2023/12/25 11:55:19;;;;;;;2.20;1.80;;;8.80;72.60;;;;;;4910696;29;20040;-77
2023/12/25 11:57:45;;;;;;;1.85;1.70;;;8.90;72.60;;;;;;4923284;29;20499;-78
2023/12/25 12:00:23;;;;;;;2.90;1.90;;;8.80;72.20;;;;;;4880534;29;20415;-78
2023/12/25 12:02:49;;;;;;;3.03;1.80;;;8.90;72.10;;;;;;4924649;29;20589;-81
2023/12/25 12:05:16;;;;;;;1.77;1.30;;;8.90;72.40;;;;;;4925493;29;20093;-80
2023/12/25 12:07:45;;;;;;;2.10;1.60;;;8.90;72.00;;;;;;4929799;29;20126;-81
2023/12/25 12:10:13;;;;;;;2.22;1.70;;;8.90;72.00;;;;;;4928103;29;20032;-81
2023/12/25 12:12:40;;;;;;;1.83;1.58;;;8.80;71.60;;;;;;4927124;29;20035;-80
2023/12/25 12:15:07;;;;;;;2.95;1.38;;;8.90;71.60;;;;;;4926228;29;20039;-80
2023/12/25 12:17:38;;;;;;;2.65;1.60;;;8.80;71.60;;;;;;4927372;29;20043;-81
2023/12/25 12:20:05;;;;;;;1.75;1.65;;;8.80;71.60;;;;;;4926900;29;20036;-78
2023/12/25 12:22:33;;;;;;;2.90;1.70;;;8.80;71.60;;;;;;4927909;29;20036;-81
2023/12/25 12:25:15;;;;;;;2.22;1.25;;;8.80;71.30;;;;;;4915611;29;20755;-77
2023/12/25 12:27:41;;;;;;;1.90;1.40;;;8.80;71.30;;;;;;4909573;29;20044;-81
2023/12/25 12:30:08;;;;;;;2.22;1.42;;;8.80;71.30;;;;;;4896409;29;20040;-79
2023/12/25 12:32:35;;;;;;;1.77;1.42;;;8.80;71.20;;;;;;4927208;29;20491;-81
2023/12/25 12:35:05;;;;;;;1.52;1.42;;;8.80;71.00;;;;;;4909915;29;20067;-80
2023/12/25 12:37:32;;;;;;;1.58;1.48;;;8.80;70.80;;;;;;4927605;29;20044;-78
2023/12/25 12:40:06;;;;;;;2.13;1.10;;;8.80;71.10;;;;;;4911438;29;20046;-82
2023/12/25 12:42:33;;;;;;;1.38;1.27;;;8.80;71.90;;;;;;4914723;29;20123;-81
2023/12/25 12:45:03;;;;;;;1.85;1.40;;;8.80;71.70;;;;;;4926908;29;20062;-82
2023/12/25 12:47:30;;;;;;;1.38;1.23;;;8.80;71.60;;;;;;4909969;29;20123;-84
2023/12/25 12:49:57;;;;;;;2.35;1.80;;;8.80;71.60;;;;;;4925506;29;20043;-84
2023/12/25 12:52:23;;;;;;;1.60;1.50;;;8.80;71.50;;;;;;4911838;29;21368;-81
2023/12/25 12:54:49;;;;;;;1.52;1.38;;;8.80;71.60;;;;;;4910731;29;20040;-82
2023/12/25 12:57:15;;;;;;;3.35;1.70;;;8.80;71.40;;;;;;4923955;29;20047;-84